createdAt,value
2019-05-26T00:01:33.011Z,23.10
2019-05-26T00:04:05.585Z,23.00
2019-05-26T00:06:38.177Z,23.50
2019-05-26T00:09:10.675Z,22.70
2019-05-26T00:11:43.507Z,22.70
2019-05-26T00:14:15.842Z,22.90
2019-05-26T00:16:51.335Z,22.90
2019-05-26T00:19:23.957Z,22.20
2019-05-26T00:21:56.479Z,22.70
2019-05-26T00:24:28.902Z,22.30
2019-05-26T00:27:01.431Z,21.70
2019-05-26T00:29:33.877Z,21.40
2019-05-26T00:32:06.621Z,21.30
2019-05-26T00:34:39.050Z,20.70
2019-05-26T00:37:11.555Z,20.60
2019-05-26T00:39:43.926Z,20.80
2019-05-26T00:42:16.431Z,20.90
2019-05-26T00:44:48.757Z,21.30
2019-05-26T00:47:21.620Z,21.70
2019-05-26T00:49:54.161Z,21.30
2019-05-26T00:52:26.926Z,20.60
2019-05-26T00:54:59.585Z,20.30
2019-05-26T00:57:32.282Z,20.00
2019-05-26T01:00:05.823Z,19.60
2019-05-26T01:02:40.513Z,20.20
2019-05-26T01:05:13.846Z,20.30
2019-05-26T01:07:46.042Z,20.40
2019-05-26T01:10:18.680Z,20.40
2019-05-26T01:12:51.091Z,19.50
2019-05-26T01:15:23.518Z,19.10
2019-05-26T01:17:55.848Z,19.40
2019-05-26T01:20:28.005Z,19.30
2019-05-26T01:23:00.733Z,19.10
2019-05-26T01:25:33.853Z,19.40
2019-05-26T01:28:06.385Z,19.50
2019-05-26T01:30:39.903Z,19.10
2019-05-26T01:33:12.416Z,18.90
2019-05-26T01:35:45.162Z,19.20
2019-05-26T01:38:23.831Z,18.40
2019-05-26T01:40:51.926Z,18.90
2019-05-26T01:43:25.376Z,19.40
2019-05-26T01:45:57.989Z,19.10
2019-05-26T01:48:30.970Z,19.50
2019-05-26T01:51:03.319Z,18.80
2019-05-26T01:53:36.005Z,18.40
2019-05-26T01:56:08.380Z,18.50
2019-05-26T01:58:41.594Z,18.50
2019-05-26T02:01:14.045Z,18.40
2019-05-26T02:03:46.543Z,18.50
2019-05-26T02:06:19.014Z,18.40
2019-05-26T02:08:51.398Z,18.20
2019-05-26T02:11:23.962Z,18.40
2019-05-26T02:13:56.575Z,17.60
2019-05-26T02:16:28.993Z,17.10
2019-05-26T02:19:01.565Z,16.80
2019-05-26T02:21:33.970Z,16.80
2019-05-26T02:24:06.637Z,16.40
2019-05-26T02:26:39.119Z,16.20
2019-05-26T02:29:11.713Z,16.30
2019-05-26T02:31:44.169Z,16.00
2019-05-26T02:34:16.573Z,15.80
2019-05-26T02:36:49.030Z,15.70
2019-05-26T02:39:22.230Z,15.60
2019-05-26T02:41:54.584Z,15.70
2019-05-26T02:44:27.307Z,15.50
2019-05-26T02:47:00.244Z,15.40
2019-05-26T02:49:33.236Z,15.40
2019-05-26T02:52:06.633Z,15.30
2019-05-26T02:54:39.584Z,15.30
2019-05-26T02:57:11.975Z,15.10
2019-05-26T02:59:44.495Z,15.00
2019-05-26T03:02:17.243Z,15.00
2019-05-26T03:04:49.730Z,14.80
2019-05-26T03:07:22.875Z,15.00
2019-05-26T03:09:56.670Z,14.90
2019-05-26T03:12:31.140Z,14.60
2019-05-26T03:15:06.498Z,14.60
2019-05-26T03:17:40.212Z,14.60
2019-05-26T03:20:14.787Z,14.70
2019-05-26T03:22:49.839Z,14.60
2019-05-26T03:25:22.419Z,14.50
2019-05-26T03:27:54.770Z,14.40
2019-05-26T03:30:27.199Z,14.50
2019-05-26T03:32:59.795Z,14.40
2019-05-26T03:35:32.428Z,14.40
2019-05-26T03:38:05.102Z,14.40
2019-05-26T03:40:37.653Z,14.60
2019-05-26T03:43:10.453Z,14.40
2019-05-26T03:45:46.022Z,14.30
2019-05-26T03:48:18.697Z,14.40
2019-05-26T03:50:51.377Z,14.40
2019-05-26T03:53:23.849Z,14.30
2019-05-26T03:55:56.274Z,14.20
2019-05-26T03:58:28.727Z,14.10
2019-05-26T04:01:01.224Z,14.10
2019-05-26T04:03:33.696Z,14.20
2019-05-26T04:06:06.203Z,14.10
2019-05-26T04:08:38.636Z,14.10
2019-05-26T04:11:11.001Z,14.10
2019-05-26T04:13:43.522Z,14.20
2019-05-26T04:16:16.127Z,14.20
2019-05-26T04:18:48.485Z,14.20
2019-05-26T04:21:20.938Z,14.20
2019-05-26T04:23:54.625Z,14.20
2019-05-26T04:26:27.236Z,14.30
2019-05-26T04:28:59.970Z,14.30
2019-05-26T04:31:32.390Z,14.30
2019-05-26T04:34:05.027Z,14.40
2019-05-26T04:36:37.353Z,14.40
2019-05-26T04:39:09.879Z,14.40
2019-05-26T04:41:42.569Z,14.30
2019-05-26T04:44:15.498Z,14.50
2019-05-26T04:46:48.099Z,14.40
2019-05-26T04:49:20.720Z,14.40
2019-05-26T04:51:53.333Z,14.50
2019-05-26T04:54:25.633Z,14.50
2019-05-26T04:56:57.927Z,14.40
2019-05-26T04:59:33.685Z,14.50
2019-05-26T05:02:05.006Z,14.60
2019-05-26T05:04:37.356Z,14.60
2019-05-26T05:07:09.781Z,14.60
2019-05-26T05:09:42.162Z,14.50
2019-05-26T05:12:14.954Z,14.40
2019-05-26T05:14:48.094Z,14.50
2019-05-26T05:17:20.913Z,14.40
2019-05-26T05:19:53.609Z,14.50
2019-05-26T05:22:26.123Z,14.50
2019-05-26T05:24:58.469Z,14.50
2019-05-26T05:27:30.992Z,14.40
2019-05-26T05:30:03.337Z,14.50
2019-05-26T05:32:35.713Z,14.30
2019-05-26T05:35:09.988Z,14.30
2019-05-26T05:37:42.371Z,14.30
2019-05-26T05:40:14.905Z,14.30
2019-05-26T05:42:47.462Z,14.30
2019-05-26T05:45:19.999Z,14.30
2019-05-26T05:47:52.386Z,14.30
2019-05-26T05:50:24.543Z,14.20
2019-05-26T05:52:57.164Z,14.30
2019-05-26T05:55:30.022Z,14.20
2019-05-26T05:58:02.844Z,14.10
2019-05-26T06:00:35.835Z,14.20
2019-05-26T06:03:08.963Z,14.20
2019-05-26T06:05:41.301Z,14.00
2019-05-26T06:08:13.656Z,14.00
2019-05-26T06:10:46.094Z,13.90
2019-05-26T06:13:18.519Z,13.90
2019-05-26T06:15:51.754Z,14.00
2019-05-26T06:18:24.776Z,14.10
2019-05-26T06:20:57.634Z,14.10
2019-05-26T06:23:30.423Z,14.10
2019-05-26T06:26:03.175Z,13.90
2019-05-26T06:28:35.983Z,13.90
2019-05-26T06:31:08.468Z,13.90
2019-05-26T06:33:41.131Z,13.90
2019-05-26T06:36:13.579Z,13.90
2019-05-26T06:38:45.935Z,13.90
2019-05-26T06:41:32.260Z,13.90
2019-05-26T06:43:52.699Z,14.00
2019-05-26T06:46:26.047Z,14.00
2019-05-26T06:48:58.712Z,14.00
2019-05-26T06:51:31.022Z,14.00
2019-05-26T06:54:03.772Z,14.20
2019-05-26T06:56:36.140Z,14.30
2019-05-26T06:59:08.530Z,14.30
2019-05-26T07:01:40.994Z,14.30
2019-05-26T07:04:13.336Z,14.20
2019-05-26T07:06:45.775Z,14.30
2019-05-26T07:09:18.360Z,14.30
2019-05-26T07:11:59.669Z,14.30
2019-05-26T07:14:25.064Z,14.30
2019-05-26T07:16:57.447Z,14.30
2019-05-26T07:19:29.843Z,14.20
2019-05-26T07:22:02.213Z,14.20
2019-05-26T07:24:34.701Z,14.30
2019-05-26T07:27:07.213Z,14.40
2019-05-26T07:29:39.670Z,14.30
2019-05-26T07:32:12.022Z,14.20
2019-05-26T07:34:44.839Z,14.20
2019-05-26T07:37:17.186Z,14.30
2019-05-26T07:39:49.583Z,14.30
2019-05-26T07:42:22.042Z,14.40
2019-05-26T07:44:54.611Z,14.40
2019-05-26T07:47:27.949Z,14.30
2019-05-26T07:50:00.829Z,14.30
2019-05-26T07:52:33.256Z,14.30
2019-05-26T07:55:07.346Z,14.20
2019-05-26T07:57:40.125Z,14.20
2019-05-26T08:00:13.395Z,14.30
2019-05-26T08:02:45.930Z,14.20
2019-05-26T08:05:18.395Z,14.20
2019-05-26T08:07:50.566Z,14.00
2019-05-26T08:10:23.021Z,13.80
2019-05-26T08:12:55.508Z,13.50
2019-05-26T08:15:27.881Z,13.10
2019-05-26T08:18:00.483Z,12.90
2019-05-26T08:20:32.873Z,12.60
2019-05-26T08:23:05.218Z,12.40
2019-05-26T08:25:37.582Z,12.30
2019-05-26T08:28:09.935Z,12.40
2019-05-26T08:30:42.538Z,12.30
2019-05-26T08:33:14.916Z,12.20
2019-05-26T08:35:47.678Z,12.10
2019-05-26T08:38:20.412Z,12.10
2019-05-26T08:40:53.099Z,12.30
2019-05-26T08:43:26.164Z,12.20
2019-05-26T08:45:59.328Z,12.10
2019-05-26T08:48:32.300Z,12.20
2019-05-26T08:51:05.039Z,12.30
2019-05-26T08:53:37.419Z,12.10
2019-05-26T08:56:10.543Z,12.10
2019-05-26T08:58:43.130Z,11.90
2019-05-26T09:01:16.114Z,12.00
2019-05-26T09:03:48.733Z,11.90
2019-05-26T09:06:21.597Z,11.80
2019-05-26T09:08:54.021Z,11.90
2019-05-26T09:11:26.794Z,11.80
2019-05-26T09:13:59.103Z,11.70
2019-05-26T09:16:31.591Z,11.80
2019-05-26T09:19:04.466Z,11.60
2019-05-26T09:21:36.814Z,11.60
2019-05-26T09:24:09.178Z,11.50
2019-05-26T09:26:41.647Z,11.50
2019-05-26T09:29:13.979Z,11.60
2019-05-26T09:31:46.545Z,11.50
2019-05-26T09:34:19.122Z,11.50
2019-05-26T09:36:51.790Z,11.50
2019-05-26T09:39:24.129Z,11.50
2019-05-26T09:41:56.478Z,11.40
2019-05-26T09:44:29.761Z,11.40
2019-05-26T09:47:02.098Z,11.40
2019-05-26T09:49:34.993Z,11.40
2019-05-26T09:52:07.730Z,11.40
2019-05-26T09:54:40.397Z,11.40
2019-05-26T09:57:13.111Z,11.40
2019-05-26T09:59:45.886Z,11.30
2019-05-26T10:02:18.359Z,11.30
2019-05-26T10:04:50.852Z,11.40
2019-05-26T10:07:23.378Z,11.40
2019-05-26T10:09:55.718Z,11.40
2019-05-26T10:12:28.089Z,11.40
2019-05-26T10:15:00.746Z,11.40
2019-05-26T10:17:34.402Z,11.40
2019-05-26T10:20:11.342Z,11.40
2019-05-26T10:22:43.688Z,11.30
2019-05-26T10:25:16.113Z,11.30
2019-05-26T10:27:48.461Z,11.20
2019-05-26T10:30:22.188Z,11.20
2019-05-26T10:32:54.532Z,11.20
2019-05-26T10:35:26.969Z,11.20
2019-05-26T10:37:59.996Z,11.20
2019-05-26T10:40:32.889Z,11.20
2019-05-26T10:43:05.350Z,11.30
2019-05-26T10:45:37.999Z,11.30
2019-05-26T10:48:11.023Z,11.30
2019-05-26T10:50:43.970Z,11.30
2019-05-26T10:53:16.752Z,11.20
2019-05-26T10:55:49.099Z,11.30
2019-05-26T10:58:22.830Z,11.30
2019-05-26T11:00:55.250Z,11.30
2019-05-26T11:03:27.719Z,11.30
2019-05-26T11:06:00.397Z,11.30
2019-05-26T11:08:33.927Z,11.40
2019-05-26T11:11:06.550Z,11.40
2019-05-26T11:13:40.751Z,11.40
2019-05-26T11:16:12.697Z,11.50
2019-05-26T11:18:45.742Z,11.50
2019-05-26T11:21:18.336Z,11.50
2019-05-26T11:23:51.082Z,11.40
2019-05-26T11:26:23.711Z,11.40
2019-05-26T11:28:56.409Z,11.40
2019-05-26T11:31:28.744Z,11.40
2019-05-26T11:34:01.062Z,11.40
2019-05-26T11:36:33.396Z,11.30
2019-05-26T11:39:07.847Z,11.30
2019-05-26T11:41:40.496Z,11.20
2019-05-26T11:44:18.120Z,11.30
2019-05-26T11:46:46.620Z,11.30
2019-05-26T11:49:18.956Z,11.30
2019-05-26T11:51:51.568Z,11.40
2019-05-26T11:54:24.198Z,11.40
2019-05-26T11:56:56.519Z,11.40
2019-05-26T11:59:29.068Z,11.40
2019-05-26T12:02:01.861Z,11.40
2019-05-26T12:04:34.224Z,11.30
2019-05-26T12:07:07.582Z,11.30
2019-05-26T12:09:40.105Z,11.30
2019-05-26T12:12:12.870Z,11.30
2019-05-26T12:14:45.293Z,11.40
2019-05-26T12:17:17.725Z,11.40
2019-05-26T12:19:50.107Z,11.30
2019-05-26T12:22:23.047Z,11.20
2019-05-26T12:24:55.646Z,11.20
2019-05-26T12:27:28.165Z,11.20
2019-05-26T12:30:00.858Z,11.20
2019-05-26T12:32:33.690Z,11.30
2019-05-26T12:35:08.514Z,11.30
2019-05-26T12:37:40.835Z,11.30
2019-05-26T12:40:13.481Z,11.20
2019-05-26T12:42:46.440Z,11.30
2019-05-26T12:45:19.426Z,11.20
2019-05-26T12:47:51.745Z,11.10
2019-05-26T12:50:24.263Z,11.10
2019-05-26T12:52:56.579Z,11.20
2019-05-26T12:55:28.926Z,11.30
2019-05-26T12:58:01.266Z,11.30
2019-05-26T13:00:48.409Z,11.20
2019-05-26T13:03:08.007Z,11.40
2019-05-26T13:05:40.345Z,11.40
2019-05-26T13:08:12.842Z,11.30
2019-05-26T13:10:46.389Z,11.30
2019-05-26T13:13:18.755Z,11.30
2019-05-26T13:15:51.162Z,11.20
2019-05-26T13:18:24.089Z,11.30
2019-05-26T13:20:56.625Z,11.30
2019-05-26T13:23:29.378Z,11.20
2019-05-26T13:26:01.702Z,11.30
2019-05-26T13:28:34.198Z,11.30
2019-05-26T13:31:06.769Z,11.30
2019-05-26T13:33:40.120Z,11.40
2019-05-26T13:36:12.976Z,11.30
2019-05-26T13:38:45.311Z,11.40
2019-05-26T13:41:17.635Z,11.30
2019-05-26T13:43:49.962Z,11.30
2019-05-26T13:46:22.314Z,11.50
2019-05-26T13:48:54.645Z,11.40
2019-05-26T13:51:27.196Z,11.40
2019-05-26T13:54:00.863Z,11.30
2019-05-26T13:56:33.202Z,11.30
2019-05-26T13:59:05.730Z,11.40
2019-05-26T14:01:39.470Z,11.50
2019-05-26T14:04:11.901Z,11.60
2019-05-26T14:06:44.610Z,11.60
2019-05-26T14:09:17.274Z,11.50
2019-05-26T14:11:49.726Z,11.50
2019-05-26T14:14:22.616Z,11.60
2019-05-26T14:16:56.641Z,11.60
2019-05-26T14:19:30.683Z,11.70
2019-05-26T14:22:03.032Z,11.90
2019-05-26T14:24:35.691Z,12.20
2019-05-26T14:27:08.065Z,12.40
2019-05-26T14:29:40.404Z,12.40
2019-05-26T14:32:13.332Z,12.50
2019-05-26T14:34:45.872Z,12.60
2019-05-26T14:37:18.371Z,12.60
2019-05-26T14:39:53.820Z,12.60
2019-05-26T14:42:26.198Z,12.70
2019-05-26T14:44:59.004Z,12.70
2019-05-26T14:47:31.679Z,12.60
2019-05-26T14:50:04.502Z,12.60
2019-05-26T14:52:38.051Z,12.80
2019-05-26T14:55:11.159Z,12.70
2019-05-26T14:57:43.866Z,12.70
2019-05-26T15:00:16.814Z,12.80
2019-05-26T15:02:50.283Z,12.80
2019-05-26T15:05:22.859Z,12.80
2019-05-26T15:07:55.666Z,12.70
2019-05-26T15:10:28.264Z,12.70
2019-05-26T15:13:01.109Z,12.60
2019-05-26T15:15:35.078Z,12.70
2019-05-26T15:18:07.519Z,12.50
2019-05-26T15:20:40.031Z,12.70
2019-05-26T15:23:12.404Z,12.70
2019-05-26T15:25:45.761Z,12.80
2019-05-26T15:28:18.462Z,12.90
2019-05-26T15:30:50.869Z,12.90
2019-05-26T15:33:23.236Z,13.00
2019-05-26T15:35:55.560Z,12.90
2019-05-26T15:38:41.879Z,12.90
2019-05-26T15:41:02.304Z,13.10
2019-05-26T15:43:34.958Z,13.30
2019-05-26T15:46:07.341Z,13.80
2019-05-26T15:48:40.253Z,14.30
2019-05-26T15:51:13.599Z,14.10
2019-05-26T15:53:46.203Z,14.10
2019-05-26T15:56:18.917Z,13.50
2019-05-26T15:58:51.745Z,13.50
2019-05-26T16:01:24.189Z,14.20
2019-05-26T16:03:56.891Z,14.50
2019-05-26T16:06:29.886Z,14.60
2019-05-26T16:09:02.567Z,14.70
2019-05-26T16:11:35.115Z,15.10
2019-05-26T16:14:08.718Z,15.40
2019-05-26T16:16:42.058Z,15.80
2019-05-26T16:19:15.188Z,15.70
2019-05-26T16:21:47.770Z,15.70
2019-05-26T16:24:20.384Z,14.60
2019-05-26T16:26:53.286Z,13.30
2019-05-26T16:29:26.374Z,12.90
2019-05-26T16:31:59.053Z,12.80
2019-05-26T16:34:31.651Z,13.50
2019-05-26T16:37:03.994Z,13.70
2019-05-26T16:39:37.442Z,13.70
2019-05-26T16:42:10.040Z,14.50
2019-05-26T16:44:42.482Z,15.00
2019-05-26T16:47:14.897Z,14.60
2019-05-26T16:49:47.392Z,14.90
2019-05-26T16:52:20.746Z,15.00
2019-05-26T16:54:53.329Z,15.70
2019-05-26T16:57:26.191Z,15.50
2019-05-26T16:59:58.664Z,15.20
2019-05-26T17:02:32.227Z,14.80
2019-05-26T17:05:05.010Z,14.70
2019-05-26T17:07:37.547Z,14.60
2019-05-26T17:10:11.086Z,14.70
2019-05-26T17:12:43.511Z,14.70
2019-05-26T17:15:16.022Z,14.60
2019-05-26T17:17:48.885Z,14.40
2019-05-26T17:20:22.871Z,15.20
2019-05-26T17:22:55.580Z,16.30
2019-05-26T17:25:27.902Z,17.00
2019-05-26T17:28:00.465Z,16.30
2019-05-26T17:30:32.743Z,15.80
2019-05-26T17:33:04.940Z,15.70
2019-05-26T17:35:37.068Z,16.10
2019-05-26T17:38:10.177Z,16.70
2019-05-26T17:40:42.641Z,17.30
2019-05-26T17:43:15.511Z,17.10
2019-05-26T17:45:48.599Z,17.10
2019-05-26T17:48:20.995Z,16.40
2019-05-26T17:50:53.666Z,16.90
2019-05-26T17:53:26.243Z,18.00
2019-05-26T17:55:58.558Z,17.40
2019-05-26T17:58:30.973Z,17.80
2019-05-26T18:01:03.375Z,17.80
2019-05-26T18:03:36.164Z,16.80
2019-05-26T18:06:09.409Z,16.30
2019-05-26T18:08:42.292Z,14.50
2019-05-26T18:11:15.290Z,14.40
2019-05-26T18:13:48.166Z,14.30
2019-05-26T18:16:20.528Z,13.90
2019-05-26T18:18:53.267Z,13.70
2019-05-26T18:21:25.850Z,14.40
2019-05-26T18:23:58.455Z,15.90
2019-05-26T18:26:30.854Z,16.90
2019-05-26T18:29:03.581Z,17.30
2019-05-26T18:31:36.241Z,16.80
2019-05-26T18:34:08.605Z,17.10
2019-05-26T18:36:41.425Z,17.50
2019-05-26T18:39:13.903Z,17.00
2019-05-26T18:41:46.402Z,17.00
2019-05-26T18:44:18.919Z,17.70
2019-05-26T18:46:53.459Z,18.00
2019-05-26T18:49:26.384Z,18.50
2019-05-26T18:51:59.037Z,17.90
2019-05-26T18:54:32.130Z,19.20
2019-05-26T18:57:04.617Z,18.40
2019-05-26T18:59:37.008Z,18.10
2019-05-26T19:02:09.889Z,17.50
2019-05-26T19:04:42.521Z,18.00
2019-05-26T19:07:15.510Z,17.60
2019-05-26T19:09:47.931Z,17.70
2019-05-26T19:12:20.354Z,18.60
2019-05-26T19:14:52.906Z,19.00
2019-05-26T19:17:25.255Z,18.50
2019-05-26T19:20:12.736Z,19.30
2019-05-26T19:22:31.764Z,19.50
2019-05-26T19:25:05.969Z,19.50
2019-05-26T19:27:38.300Z,19.90
2019-05-26T19:30:12.052Z,21.80
2019-05-26T19:32:44.419Z,22.40
2019-05-26T19:35:17.830Z,23.10
2019-05-26T19:37:50.266Z,24.30
2019-05-26T19:40:22.755Z,25.70
2019-05-26T19:42:55.275Z,25.30
2019-05-26T19:45:28.150Z,25.30
2019-05-26T19:48:00.339Z,26.70
2019-05-26T19:50:33.235Z,27.70
2019-05-26T19:53:06.355Z,27.00
2019-05-26T19:55:39.447Z,26.10
2019-05-26T19:58:11.884Z,25.50
2019-05-26T20:00:44.072Z,22.90
2019-05-26T20:03:16.511Z,22.40
2019-05-26T20:05:49.192Z,21.90
2019-05-26T20:08:21.898Z,21.70
2019-05-26T20:10:54.268Z,21.60
2019-05-26T20:13:26.910Z,20.50
2019-05-26T20:15:59.759Z,20.10
2019-05-26T20:18:32.506Z,19.10
2019-05-26T20:21:04.866Z,18.90
2019-05-26T20:23:37.562Z,18.80
2019-05-26T20:26:10.107Z,18.90
2019-05-26T20:28:42.466Z,18.80
2019-05-26T20:31:14.891Z,18.70
2019-05-26T20:33:47.218Z,18.50
2019-05-26T20:36:19.597Z,18.50
2019-05-26T20:38:52.281Z,18.80
2019-05-26T20:41:24.647Z,19.40
2019-05-26T20:43:57.053Z,21.40
2019-05-26T20:46:30.573Z,21.30
2019-05-26T20:49:02.904Z,23.90
2019-05-26T20:51:35.261Z,26.40
2019-05-26T20:54:07.941Z,25.70
2019-05-26T20:56:40.530Z,27.40
2019-05-26T20:59:13.230Z,24.90
2019-05-26T21:01:46.899Z,25.20
2019-05-26T21:04:19.352Z,25.00
2019-05-26T21:06:51.926Z,24.80
2019-05-26T21:09:24.987Z,26.80
2019-05-26T21:11:57.549Z,27.80
2019-05-26T21:14:29.954Z,26.80
2019-05-26T21:17:02.429Z,27.00
2019-05-26T21:19:34.746Z,29.30
2019-05-26T21:22:07.475Z,26.60
2019-05-26T21:24:40.663Z,28.30
2019-05-26T21:27:13.925Z,30.20
2019-05-26T21:29:46.481Z,30.30
2019-05-26T21:32:19.140Z,29.20
2019-05-26T21:34:51.719Z,28.80
2019-05-26T21:37:24.370Z,30.80
2019-05-26T21:39:57.031Z,27.60
2019-05-26T21:42:29.851Z,28.50
2019-05-26T21:45:02.325Z,26.50
2019-05-26T21:47:35.265Z,25.20
2019-05-26T21:50:11.630Z,25.90
2019-05-26T21:52:44.326Z,24.60
2019-05-26T21:55:18.095Z,25.40
2019-05-26T21:57:50.849Z,23.80
2019-05-26T22:00:24.986Z,25.00
2019-05-26T22:02:58.725Z,23.80
2019-05-26T22:05:31.202Z,23.90
2019-05-26T22:08:03.721Z,24.80
2019-05-26T22:10:36.394Z,25.40
2019-05-26T22:13:08.787Z,27.00
2019-05-26T22:15:41.166Z,23.60
2019-05-26T22:18:13.535Z,20.50
2019-05-26T22:20:46.022Z,20.30
2019-05-26T22:23:18.845Z,19.80
2019-05-26T22:25:51.427Z,19.50
2019-05-26T22:28:24.216Z,19.20
2019-05-26T22:30:56.749Z,18.70
2019-05-26T22:33:29.126Z,18.00
2019-05-26T22:36:01.481Z,18.10
2019-05-26T22:38:34.203Z,18.70
2019-05-26T22:41:06.833Z,18.80
2019-05-26T22:43:40.454Z,17.90
2019-05-26T22:46:13.829Z,17.90
2019-05-26T22:48:46.441Z,18.20
2019-05-26T22:51:18.916Z,17.30
2019-05-26T22:53:51.346Z,17.40
2019-05-26T22:56:23.723Z,18.40
2019-05-26T22:58:56.414Z,18.70
2019-05-26T23:01:29.162Z,18.40
2019-05-26T23:04:03.330Z,18.30
2019-05-26T23:06:35.410Z,18.40
2019-05-26T23:09:08.251Z,18.70
2019-05-26T23:11:40.952Z,17.90
2019-05-26T23:14:13.344Z,17.40
2019-05-26T23:16:45.681Z,18.00
2019-05-26T23:19:19.938Z,18.60
2019-05-26T23:21:51.927Z,17.80
2019-05-26T23:24:24.596Z,17.00
2019-05-26T23:26:57.718Z,16.70
2019-05-26T23:29:30.354Z,16.90
2019-05-26T23:32:03.017Z,16.50
2019-05-26T23:34:35.481Z,16.10
2019-05-26T23:37:07.964Z,15.90
2019-05-26T23:39:41.457Z,16.10
2019-05-26T23:42:13.818Z,16.30
2019-05-26T23:44:47.221Z,16.40
2019-05-26T23:47:19.601Z,15.90
2019-05-26T23:49:53.120Z,15.60
2019-05-26T23:52:25.471Z,15.30
2019-05-26T23:54:57.947Z,15.30
2019-05-26T23:57:30.356Z,14.20
